createdAt,value
2022-09-30T00:04:40.889Z,100418.94
2022-09-30T00:09:43.052Z,100431.16
2022-09-30T00:14:44.771Z,100434.47
2022-09-30T00:19:48.217Z,100437.03
2022-09-30T00:24:50.537Z,100447.50
2022-09-30T00:29:52.584Z,100443.78
2022-09-30T00:34:55.769Z,100443.09
2022-09-30T00:39:57.803Z,100443.88
2022-09-30T00:45:05.838Z,100443.56
2022-09-30T00:50:21.483Z,100441.66
2022-09-30T00:55:33.741Z,100453.84
2022-09-30T01:00:36.216Z,100455.59
2022-09-30T01:05:39.749Z,100447.78
2022-09-30T01:10:41.592Z,100462.44
2022-09-30T01:16:16.648Z,100458.75
2022-09-30T01:21:55.010Z,100481.53
2022-09-30T01:27:16.576Z,100478.84
2022-09-30T01:32:28.694Z,100478.75
2022-09-30T01:37:42.466Z,100477.78
2022-09-30T01:42:51.727Z,100465.44
2022-09-30T01:48:02.116Z,100466.13
2022-09-30T01:53:11.335Z,100461.22
2022-09-30T01:58:21.388Z,100451.50
2022-09-30T02:03:31.232Z,100459.34
2022-09-30T02:08:40.253Z,100452.94
2022-09-30T02:13:48.421Z,100465.09
2022-09-30T02:18:54.221Z,100470.41
2022-09-30T02:24:02.897Z,100469.28
2022-09-30T02:29:08.530Z,100476.25
2022-09-30T02:34:15.070Z,100482.34
2022-09-30T02:39:36.907Z,100478.69
2022-09-30T02:44:39.143Z,100476.31
2022-09-30T02:49:48.032Z,100484.56
2022-09-30T02:55:00.288Z,100490.56
2022-09-30T03:00:03.578Z,100493.38
2022-09-30T03:05:09.303Z,100500.88
2022-09-30T03:10:14.940Z,100506.03
2022-09-30T03:15:27.698Z,100497.97
2022-09-30T03:20:46.527Z,100497.97
2022-09-30T03:25:57.106Z,100506.41
2022-09-30T03:31:07.185Z,100504.06
2022-09-30T03:36:15.545Z,100514.44
2022-09-30T03:41:24.622Z,100522.28
2022-09-30T03:46:30.994Z,100525.81
2022-09-30T03:51:37.135Z,100524.09
2022-09-30T03:56:40.811Z,100525.66
2022-09-30T04:01:42.773Z,100535.13
2022-09-30T04:06:46.574Z,100539.94
2022-09-30T04:11:48.541Z,100543.56
2022-09-30T04:16:53.784Z,100547.78
2022-09-30T04:21:57.269Z,100550.50
2022-09-30T04:26:59.500Z,100558.56
2022-09-30T04:32:02.077Z,100552.03
2022-09-30T04:37:10.092Z,100565.78
2022-09-30T04:42:13.043Z,100573.94
2022-09-30T04:47:14.992Z,100579.06
2022-09-30T04:52:18.370Z,100580.78
2022-09-30T04:57:20.711Z,100595.47
2022-09-30T05:02:22.465Z,100601.91
2022-09-30T05:07:28.060Z,100613.84
2022-09-30T05:12:30.338Z,100613.84
2022-09-30T05:17:32.713Z,100609.66
2022-09-30T05:22:36.098Z,100618.56
2022-09-30T05:27:38.271Z,100624.59
2022-09-30T05:32:40.287Z,100620.25
2022-09-30T05:37:43.723Z,100629.97
2022-09-30T05:42:45.379Z,100622.44
2022-09-30T05:47:51.877Z,100634.91
2022-09-30T05:52:55.023Z,100643.03
2022-09-30T05:57:57.143Z,100647.69
2022-09-30T06:02:59.172Z,100649.53
2022-09-30T06:08:03.377Z,100657.53
2022-09-30T06:13:05.768Z,100660.56
2022-09-30T06:18:08.766Z,100662.59
2022-09-30T06:23:12.004Z,100672.75
2022-09-30T06:28:13.906Z,100673.09
2022-09-30T06:33:16.520Z,100682.28
2022-09-30T06:38:19.915Z,100689.63
2022-09-30T06:43:22.122Z,100697.84
2022-09-30T06:48:35.397Z,100693.91
2022-09-30T06:53:40.465Z,100701.31
2022-09-30T06:58:42.722Z,100706.13
2022-09-30T07:03:49.351Z,100706.53
2022-09-30T07:08:54.754Z,100707.69
2022-09-30T07:13:56.941Z,100711.47
2022-09-30T07:18:59.078Z,100704.69
2022-09-30T07:24:03.324Z,100711.00
2022-09-30T07:29:05.444Z,100712.06
2022-09-30T07:34:09.350Z,100721.84
2022-09-30T07:39:12.675Z,100720.16
2022-09-30T07:44:15.124Z,100715.84
2022-09-30T07:49:18.127Z,100712.34
2022-09-30T07:54:24.827Z,100718.50
2022-09-30T07:59:28.262Z,100724.66
2022-09-30T08:04:30.146Z,100732.53
2022-09-30T08:09:33.580Z,100744.75
2022-09-30T08:14:36.018Z,100743.75
2022-09-30T08:19:37.724Z,100736.50
2022-09-30T08:24:41.376Z,100741.50
2022-09-30T08:29:54.527Z,100737.72
2022-09-30T08:34:57.669Z,100757.59
2022-09-30T08:40:01.280Z,100747.47
2022-09-30T08:45:09.374Z,100755.22
2022-09-30T08:50:18.702Z,100761.59
2022-09-30T08:55:24.767Z,100766.28
2022-09-30T09:00:26.661Z,100764.69
2022-09-30T09:05:38.656Z,100770.66
2022-09-30T09:10:46.064Z,100758.31
2022-09-30T09:16:01.851Z,100771.63
2022-09-30T09:21:16.091Z,100771.56
2022-09-30T09:26:20.149Z,100766.34
2022-09-30T09:31:22.566Z,100768.13
2022-09-30T09:36:39.376Z,100767.84
2022-09-30T09:41:51.519Z,100759.94
2022-09-30T09:47:00.302Z,100754.06
2022-09-30T09:52:28.818Z,100757.50
2022-09-30T09:57:32.473Z,100759.69
2022-09-30T10:02:34.864Z,100753.97
2022-09-30T10:07:36.571Z,100740.13
2022-09-30T10:12:41.722Z,100746.72
2022-09-30T10:17:44.030Z,100731.22
2022-09-30T10:22:47.922Z,100733.25
2022-09-30T10:27:59.023Z,100740.72
2022-09-30T10:33:02.358Z,100734.97
2022-09-30T10:38:03.993Z,100722.53
2022-09-30T10:43:19.838Z,100727.28
2022-09-30T10:48:24.271Z,100722.53
2022-09-30T10:53:27.791Z,100719.72
2022-09-30T10:58:46.109Z,100715.25
2022-09-30T11:03:57.224Z,100706.50
2022-09-30T11:09:04.464Z,100704.75
2022-09-30T11:14:20.605Z,100707.22
2022-09-30T11:19:28.455Z,100700.19
2022-09-30T11:24:38.845Z,100703.50
2022-09-30T11:30:01.539Z,100696.25
2022-09-30T11:35:17.143Z,100704.03
2022-09-30T11:40:37.583Z,100706.91
2022-09-30T11:45:55.083Z,100702.84
2022-09-30T11:51:09.134Z,100707.91
2022-09-30T11:56:25.470Z,100694.72
2022-09-30T12:01:33.752Z,100697.09
2022-09-30T12:06:40.618Z,100706.63
2022-09-30T12:11:49.646Z,100699.97
2022-09-30T12:16:53.766Z,100698.25
2022-09-30T12:22:01.278Z,100684.22
2022-09-30T12:27:13.079Z,100696.41
2022-09-30T12:32:43.022Z,100693.81
2022-09-30T12:38:06.526Z,100689.75
2022-09-30T12:43:32.206Z,100696.56
2022-09-30T12:48:39.115Z,100696.44
2022-09-30T12:53:41.553Z,100700.03
2022-09-30T12:58:48.137Z,100689.72
2022-09-30T13:03:53.301Z,100694.13
2022-09-30T13:09:19.884Z,100696.72
2022-09-30T13:14:32.402Z,100688.69
2022-09-30T13:19:36.916Z,100702.84
2022-09-30T13:25:11.692Z,100709.78
2022-09-30T13:30:34.736Z,100706.56
2022-09-30T13:35:50.969Z,100698.00
2022-09-30T13:41:02.215Z,100687.94
2022-09-30T13:46:10.554Z,100695.44
2022-09-30T13:51:16.621Z,100701.03
2022-09-30T13:56:21.690Z,100686.53
2022-09-30T14:01:36.930Z,100686.75
2022-09-30T14:06:55.906Z,100686.50
2022-09-30T14:12:10.424Z,100693.28
2022-09-30T14:17:30.312Z,100684.38
2022-09-30T14:22:36.689Z,100678.72
2022-09-30T14:27:59.334Z,100694.06
2022-09-30T14:33:09.278Z,100697.78
2022-09-30T14:38:20.603Z,100692.38
2022-09-30T14:43:25.692Z,100705.03
2022-09-30T14:48:31.365Z,100702.44
2022-09-30T14:53:36.627Z,100696.38
2022-09-30T14:58:40.050Z,100699.56
2022-09-30T15:03:45.161Z,100703.69
2022-09-30T15:08:49.899Z,100701.69
2022-09-30T15:13:59.836Z,100703.13
2022-09-30T15:19:01.560Z,100702.34
2022-09-30T15:24:04.922Z,100710.81
2022-09-30T15:29:06.568Z,100707.34
2022-09-30T15:34:20.418Z,100711.19
2022-09-30T15:39:29.650Z,100712.31
2022-09-30T15:44:38.988Z,100706.88
2022-09-30T15:49:48.245Z,100709.31
2022-09-30T15:54:51.405Z,100707.78
2022-09-30T15:59:58.390Z,100715.44
2022-09-30T16:05:01.511Z,100716.38
2022-09-30T16:10:05.189Z,100713.66
2022-09-30T16:15:10.773Z,100715.53
2022-09-30T16:20:22.632Z,100709.50
2022-09-30T16:25:27.889Z,100707.81
2022-09-30T16:30:30.741Z,100719.19
2022-09-30T16:35:32.692Z,100718.34
2022-09-30T16:40:35.938Z,100719.91
2022-09-30T16:45:38.922Z,100716.22
2022-09-30T16:50:46.702Z,100719.38
2022-09-30T16:55:49.945Z,100719.91
2022-09-30T17:00:52.747Z,100722.88
2022-09-30T17:05:54.657Z,100721.38
2022-09-30T17:10:57.754Z,100721.84
2022-09-30T17:16:00.361Z,100717.88
2022-09-30T17:21:02.804Z,100722.59
2022-09-30T17:26:06.809Z,100721.13
2022-09-30T17:31:09.504Z,100728.41
2022-09-30T17:36:13.147Z,100727.75
2022-09-30T17:41:16.434Z,100727.91
2022-09-30T17:46:19.432Z,100725.38
2022-09-30T17:51:21.166Z,100728.22
2022-09-30T17:56:24.303Z,100737.19
2022-09-30T18:01:26.019Z,100737.25
2022-09-30T18:06:28.477Z,100732.06
2022-09-30T18:11:31.790Z,100737.47
2022-09-30T18:16:34.282Z,100747.19
2022-09-30T18:21:37.204Z,100742.88
2022-09-30T18:26:40.273Z,100735.00
2022-09-30T18:31:42.177Z,100737.72
2022-09-30T18:36:43.922Z,100739.50
2022-09-30T18:41:47.524Z,100727.19
2022-09-30T18:46:49.564Z,100730.69
2022-09-30T18:51:51.628Z,100729.84
2022-09-30T18:56:55.227Z,100729.84
2022-09-30T19:01:57.598Z,100730.78
2022-09-30T19:06:59.969Z,100744.00
2022-09-30T19:12:03.910Z,100736.97
2022-09-30T19:17:06.362Z,100736.13
2022-09-30T19:22:08.278Z,100751.09
2022-09-30T19:27:11.679Z,100750.22
2022-09-30T19:32:13.572Z,100745.81
2022-09-30T19:37:26.050Z,100740.50
2022-09-30T19:42:30.323Z,100744.03
2022-09-30T19:47:34.484Z,100746.66
2022-09-30T19:52:40.649Z,100742.22
2022-09-30T19:57:51.490Z,100748.34
2022-09-30T20:02:53.187Z,100748.34
2022-09-30T20:07:54.898Z,100747.44
2022-09-30T20:12:57.966Z,100746.56
2022-09-30T20:18:00.316Z,100752.66
2022-09-30T20:23:02.596Z,100759.66
2022-09-30T20:28:06.161Z,100749.06
2022-09-30T20:33:08.030Z,100743.75
2022-09-30T20:38:13.012Z,100746.41
2022-09-30T20:43:16.044Z,100745.69
2022-09-30T20:48:17.785Z,100744.88
2022-09-30T20:53:19.448Z,100748.44
2022-09-30T20:58:22.566Z,100736.13
2022-09-30T21:03:24.276Z,100731.75
2022-09-30T21:08:26.056Z,100726.44
2022-09-30T21:13:29.227Z,100727.31
2022-09-30T21:18:31.692Z,100724.69
2022-09-30T21:23:34.329Z,100721.16
2022-09-30T21:28:37.937Z,100721.13
2022-09-30T21:33:39.571Z,100715.84
2022-09-30T21:38:41.310Z,100715.81
2022-09-30T21:43:44.592Z,100717.56
2022-09-30T21:48:46.289Z,100728.09
2022-09-30T21:53:47.961Z,100731.53
2022-09-30T21:58:51.042Z,100730.63
2022-09-30T22:03:52.754Z,100725.34
2022-09-30T22:08:54.490Z,100731.50
2022-09-30T22:13:59.158Z,100739.34
2022-09-30T22:19:03.741Z,100735.81
2022-09-30T22:24:06.707Z,100734.91
2022-09-30T22:29:11.172Z,100740.13
2022-09-30T22:34:14.303Z,100749.75
2022-09-30T22:39:16.001Z,100746.09
2022-09-30T22:44:19.231Z,100744.28
2022-09-30T22:49:21.893Z,100732.81
2022-09-30T22:54:25.375Z,100724.91
2022-09-30T22:59:29.971Z,100716.00
2022-09-30T23:04:31.822Z,100715.03
2022-09-30T23:09:33.697Z,100717.66
2022-09-30T23:14:36.777Z,100706.13
2022-09-30T23:19:38.718Z,100697.34
2022-09-30T23:24:40.510Z,100700.78
2022-09-30T23:29:43.545Z,100705.13
2022-09-30T23:34:45.194Z,100698.09
2022-09-30T23:39:46.856Z,100686.56
2022-09-30T23:44:49.832Z,100688.16
2022-09-30T23:49:51.501Z,100691.69
2022-09-30T23:54:53.666Z,100681.09
2022-09-30T23:59:56.850Z,100680.22
